Time;durP1;ratioP1;P1;durP2;ratioP2;P2;SDS_P1;SDS_P2;PMS_P1;PMS_P2;Temp;Humidity;BMP_temperature;BMP_pressure;BME280_temperature;BME280_humidity;BME280_pressure;Samples;Min_cycle;Max_cycle;Signal;HPM_P1;HPM_P2
2022/03/25 00:00:30;;;;;;;;;;;;;;;-145.06;0.00;60892.56;4705887;29;19958;-91
2022/03/25 00:03:10;;;;;;;;;;;;;;;-145.06;0.00;60892.56;4707489;29;19923;-90
2022/03/25 00:05:49;;;;;;;;;;;;;;;-145.06;0.00;60892.56;4707263;29;19963;-89
2022/03/25 00:08:29;;;;;;;;;;;;;;;-145.06;0.00;60892.56;4707344;29;19920;-91
2022/03/25 00:11:08;;;;;;;;;;;;;;;-145.06;0.00;60892.56;4704754;29;19919;-90
2022/03/25 00:13:47;;;;;;;;;;;;;;;-145.06;0.00;60892.56;4705568;29;19919;-90
2022/03/25 00:16:26;;;;;;;;;;;;;;;-145.06;0.00;60892.56;4713212;29;19915;-90
2022/03/25 00:19:05;;;;;;;;;;;;;;;-145.06;0.00;60892.56;4706556;29;20239;-89
2022/03/25 00:21:44;;;;;;;;;;;;;;;-145.06;0.00;60892.56;4710620;29;19920;-91
2022/03/25 00:24:24;;;;;;;;;;;;;;;-145.06;0.00;60892.56;4703041;29;20311;-91
2022/03/25 00:27:04;;;;;;;;;;;;;;;-145.06;0.00;60892.56;4707089;29;20394;-90
2022/03/25 00:29:43;;;;;;;;;;;;;;;-145.06;0.00;60892.56;4706316;29;19959;-90
2022/03/25 00:32:21;;;;;;;;;;;;;;;-145.06;0.00;60892.56;4702780;29;19954;-89
2022/03/25 00:35:00;;;;;;;;;;;;;;;-145.06;0.00;60892.56;4702478;29;19916;-90
2022/03/25 00:37:43;;;;;;;;;;;;;;;-145.06;0.00;60892.56;4706026;29;19916;-91
2022/03/25 00:40:21;;;;;;;;;;;;;;;-145.06;0.00;60892.56;4699433;29;19928;-89
2022/03/25 00:43:01;;;;;;;;;;;;;;;-145.06;0.00;60892.56;4706599;29;19916;-89
2022/03/25 00:45:40;;;;;;;;;;;;;;;-145.06;0.00;60892.56;4706503;29;19916;-90
2022/03/25 00:48:18;;;;;;;;;;;;;;;-145.06;0.00;60892.56;4706846;29;20010;-89
2022/03/25 00:50:59;;;;;;;;;;;;;;;-145.06;0.00;60892.56;4703339;29;19920;-90
2022/03/25 00:53:37;;;;;;;;;;;;;;;-145.06;0.00;60892.56;4697085;29;20359;-90
2022/03/25 00:56:16;;;;;;;;;;;;;;;-145.06;0.00;60892.56;4706262;29;19923;-89
2022/03/25 00:58:55;;;;;;;;;;;;;;;-145.06;0.00;60892.56;4710200;29;19919;-90
2022/03/25 01:01:35;;;;;;;;;;;;;;;-145.06;0.00;60892.56;4710293;29;19967;-91
2022/03/25 01:04:13;;;;;;;;;;;;;;;-145.06;0.00;60892.56;4709202;29;20377;-90
2022/03/25 01:06:52;;;;;;;;;;;;;;;-145.06;0.00;60892.56;4707010;29;20279;-90
2022/03/25 01:09:31;;;;;;;;;;;;;;;-145.06;0.00;60892.56;4705685;29;19958;-91
2022/03/25 01:12:11;;;;;;;;;;;;;;;-145.06;0.00;60892.56;4710127;29;19916;-90
2022/03/25 01:14:50;;;;;;;;;;;;;;;-145.06;0.00;60892.56;4703095;29;19916;-90
2022/03/25 01:17:29;;;;;;;;;;;;;;;-145.06;0.00;60892.56;4708474;29;19947;-90
2022/03/25 01:20:09;;;;;;;;;;;;;;;-145.06;0.00;60892.56;4706993;29;19963;-89
2022/03/25 01:22:48;;;;;;;;;;;;;;;-145.06;0.00;60892.56;4700747;29;20370;-90
2022/03/25 01:25:27;;;;;;;;;;;;;;;-145.06;0.00;60892.56;4707406;29;19947;-90
2022/03/25 01:28:06;;;;;;;;;;;;;;;-145.06;0.00;60892.56;4708378;29;19963;-90
2022/03/25 01:30:46;;;;;;;;;;;;;;;-145.06;0.00;60892.56;4708427;29;19920;-90
2022/03/25 01:33:25;;;;;;;;;;;;;;;-145.06;0.00;60892.56;4709665;29;19924;-89
2022/03/25 01:36:04;;;;;;;;;;;;;;;-145.06;0.00;60892.56;4708530;29;19919;-90
2022/03/25 01:38:44;;;;;;;;;;;;;;;-145.06;0.00;60892.56;4709160;29;19915;-90
2022/03/25 01:41:23;;;;;;;;;;;;;;;-145.06;0.00;60892.56;4707182;29;19920;-91
2022/03/25 01:44:02;;;;;;;;;;;;;;;-145.06;0.00;60892.56;4707475;29;19916;-90
2022/03/25 01:46:41;;;;;;;;;;;;;;;-145.06;0.00;60892.56;4709047;29;19920;-90
2022/03/25 01:49:21;;;;;;;;;;;;;;;-145.06;0.00;60892.56;4704001;29;20027;-91
2022/03/25 01:52:02;;;;;;;;;;;;;;;-145.06;0.00;60892.56;4707944;29;19915;-90
2022/03/25 01:54:41;;;;;;;;;;;;;;;-145.06;0.00;60892.56;4707320;29;19923;-91
2022/03/25 01:57:24;;;;;;;;;;;;;;;-145.06;0.00;60892.56;4708725;29;19998;-90
2022/03/25 02:00:04;;;;;;;;;;;;;;;-145.06;0.00;60892.56;4711526;29;19916;-91
2022/03/25 02:02:43;;;;;;;;;;;;;;;-145.06;0.00;60892.56;4706144;29;19938;-89
2022/03/25 02:05:22;;;;;;;;;;;;;;;-145.06;0.00;60892.56;4701949;29;20259;-90
2022/03/25 02:08:03;;;;;;;;;;;;;;;-145.06;0.00;60892.56;4714971;29;19958;-90
2022/03/25 02:10:42;;;;;;;;;;;;;;;-145.06;0.00;60892.56;4704052;29;19920;-89
2022/03/25 02:13:21;;;;;;;;;;;;;;;-145.06;0.00;60892.56;4703472;29;19920;-91
2022/03/25 02:16:00;;;;;;;;;;;;;;;-145.06;0.00;60892.56;4704548;29;19916;-91
2022/03/25 02:18:39;;;;;;;;;;;;;;;-145.06;0.00;60892.56;4708548;29;19915;-90
2022/03/25 02:21:18;;;;;;;;;;;;;;;-145.06;0.00;60892.56;4706661;29;19971;-91
2022/03/25 02:23:58;;;;;;;;;;;;;;;-145.06;0.00;60892.56;4708269;29;19971;-91
2022/03/25 02:26:37;;;;;;;;;;;;;;;-145.06;0.00;60892.56;4695487;29;19915;-89
2022/03/25 02:29:16;;;;;;;;;;;;;;;-145.06;0.00;60892.56;4707660;29;19954;-90
2022/03/25 02:31:55;;;;;;;;;;;;;;;-145.06;0.00;60892.56;4706385;29;20322;-90
2022/03/25 02:34:34;;;;;;;;;;;;;;;-145.06;0.00;60892.56;4707917;29;19920;-90
2022/03/25 02:37:13;;;;;;;;;;;;;;;-145.06;0.00;60892.56;4702559;29;20390;-90
2022/03/25 02:39:53;;;;;;;;;;;;;;;-145.06;0.00;60892.56;4705139;29;19916;-90
2022/03/25 02:42:32;;;;;;;;;;;;;;;-145.06;0.00;60892.56;4707133;29;19915;-89
2022/03/25 02:45:11;;;;;;;;;;;;;;;-145.06;0.00;60892.56;4703110;29;19916;-90
2022/03/25 02:47:50;;;;;;;;;;;;;;;-145.06;0.00;60892.56;4706427;29;19915;-90
2022/03/25 02:50:30;;;;;;;;;;;;;;;-145.06;0.00;60892.56;4706093;29;19916;-90
2022/03/25 02:53:09;;;;;;;;;;;;;;;-145.06;0.00;60892.56;4708395;29;19964;-90
2022/03/25 02:55:48;;;;;;;;;;;;;;;-145.06;0.00;60892.56;4706485;29;20330;-90
2022/03/25 02:58:27;;;;;;;;;;;;;;;-145.06;0.00;60892.56;4707751;29;20119;-90
2022/03/25 03:01:06;;;;;;;;;;;;;;;-145.06;0.00;60892.56;4705683;29;19920;-91
2022/03/25 03:03:45;;;;;;;;;;;;;;;-145.06;0.00;60892.56;4706870;29;20391;-90
2022/03/25 03:06:24;;;;;;;;;;;;;;;-145.06;0.00;60892.56;4707468;29;19919;-90
2022/03/25 03:09:03;;;;;;;;;;;;;;;-145.06;0.00;60892.56;4702977;29;19915;-90
2022/03/25 03:11:43;;;;;;;;;;;;;;;-145.06;0.00;60892.56;4697149;29;20002;-90
2022/03/25 03:14:22;;;;;;;;;;;;;;;-145.06;0.00;60892.56;4702234;29;19920;-90
2022/03/25 03:17:02;;;;;;;;;;;;;;;-145.06;0.00;60892.56;4706908;29;19919;-89
2022/03/25 03:19:41;;;;;;;;;;;;;;;-145.06;0.00;60892.56;4714072;29;19916;-91
2022/03/25 03:22:20;;;;;;;;;;;;;;;-145.06;0.00;60892.56;4706328;29;19928;-90
2022/03/25 03:24:59;;;;;;;;;;;;;;;-145.06;0.00;60892.56;4706847;29;19916;-90
2022/03/25 03:27:39;;;;;;;;;;;;;;;-145.06;0.00;60892.56;4703277;29;19920;-90
2022/03/25 03:30:18;;;;;;;;;;;;;;;-145.06;0.00;60892.56;4704942;29;19916;-90
2022/03/25 03:33:04;;;;;;;;;;;;;;;-145.06;0.00;60892.56;4705431;29;20251;-90
2022/03/25 03:35:44;;;;;;;;;;;;;;;-145.06;0.00;60892.56;4705359;29;19915;-90
2022/03/25 03:38:23;;;;;;;;;;;;;;;-145.06;0.00;60892.56;4699011;29;19959;-91
2022/03/25 03:41:02;;;;;;;;;;;;;;;-145.06;0.00;60892.56;4706227;29;19967;-89
2022/03/25 03:43:40;;;;;;;;;;;;;;;-145.06;0.00;60892.56;4707002;29;19920;-90
2022/03/25 03:46:20;;;;;;;;;;;;;;;-145.06;0.00;60892.56;4706886;29;19912;-89
2022/03/25 03:48:59;;;;;;;;;;;;;;;-145.06;0.00;60892.56;4705725;29;19916;-90
2022/03/25 03:51:37;;;;;;;;;;;;;;;-145.06;0.00;60892.56;4704702;29;19935;-88
2022/03/25 03:54:16;;;;;;;;;;;;;;;-145.06;0.00;60892.56;4706959;29;19963;-89
2022/03/25 03:56:55;;;;;;;;;;;;;;;-145.06;0.00;60892.56;4703183;29;20400;-90
2022/03/25 03:59:35;;;;;;;;;;;;;;;-145.06;0.00;60892.56;4702117;29;20346;-90
2022/03/25 04:02:14;;;;;;;;;;;;;;;-145.06;0.00;60892.56;4706822;29;19927;-90
2022/03/25 04:04:53;;;;;;;;;;;;;;;-145.06;0.00;60892.56;4699238;29;19919;-90
2022/03/25 04:07:32;;;;;;;;;;;;;;;-145.06;0.00;60892.56;4703345;29;19919;-90
2022/03/25 04:10:12;;;;;;;;;;;;;;;-145.06;0.00;60892.56;4697706;29;19916;-90
2022/03/25 04:12:51;;;;;;;;;;;;;;;-145.06;0.00;60892.56;4706481;29;19915;-89
2022/03/25 04:15:30;;;;;;;;;;;;;;;-145.06;0.00;60892.56;4702940;29;20014;-89
2022/03/25 04:18:09;;;;;;;;;;;;;;;-145.06;0.00;60892.56;4711701;29;19920;-90
2022/03/25 04:20:49;;;;;;;;;;;;;;;-145.06;0.00;60892.56;4702210;29;20267;-90
2022/03/25 04:23:28;;;;;;;;;;;;;;;-145.06;0.00;60892.56;4704024;29;20319;-90
2022/03/25 04:26:07;;;;;;;;;;;;;;;-145.06;0.00;60892.56;4704723;29;19920;-91
2022/03/25 04:28:46;;;;;;;;;;;;;;;-145.06;0.00;60892.56;4701392;29;20260;-89
2022/03/25 04:31:25;;;;;;;;;;;;;;;-145.06;0.00;60892.56;4706786;29;20355;-90
2022/03/25 04:34:04;;;;;;;;;;;;;;;-145.06;0.00;60892.56;4710195;29;20002;-90
2022/03/25 04:36:43;;;;;;;;;;;;;;;-145.06;0.00;60892.56;4700820;29;20538;-89
2022/03/25 04:39:23;;;;;;;;;;;;;;;-145.06;0.00;60892.56;4710087;29;19919;-89
2022/03/25 04:42:02;;;;;;;;;;;;;;;-145.06;0.00;60892.56;4696072;29;20291;-90
2022/03/25 04:44:40;;;;;;;;;;;;;;;-145.06;0.00;60892.56;4707505;29;19915;-90
2022/03/25 04:47:19;;;;;;;;;;;;;;;-145.06;0.00;60892.56;4707600;29;19919;-90
2022/03/25 04:49:58;;;;;;;;;;;;;;;-145.06;0.00;60892.56;4709990;29;19928;-91
2022/03/25 04:52:38;;;;;;;;;;;;;;;-145.06;0.00;60892.56;4708147;29;19916;-90
2022/03/25 04:55:17;;;;;;;;;;;;;;;-145.06;0.00;60892.56;4707746;29;20291;-91
2022/03/25 04:57:56;;;;;;;;;;;;;;;-145.06;0.00;60892.56;4706529;29;19920;-90
2022/03/25 05:00:37;;;;;;;;;;;;;;;-145.06;0.00;60892.56;4705536;29;20420;-89
2022/03/25 05:03:17;;;;;;;;;;;;;;;-145.06;0.00;60892.56;4713761;29;19923;-91
2022/03/25 05:05:57;;;;;;;;;;;;;;;-145.06;0.00;60892.56;4709331;29;19920;-90
2022/03/25 05:08:36;;;;;;;;;;;;;;;-145.06;0.00;60892.56;4708011;29;20366;-90
2022/03/25 05:11:15;;;;;;;;;;;;;;;-145.06;0.00;60892.56;4708671;29;19963;-90
2022/03/25 05:13:54;;;;;;;;;;;;;;;-145.06;0.00;60892.56;4704661;29;19947;-91
2022/03/25 05:16:33;;;;;;;;;;;;;;;-145.06;0.00;60892.56;4706155;29;19920;-90
2022/03/25 05:19:12;;;;;;;;;;;;;;;-145.06;0.00;60892.56;4707330;29;20014;-90
2022/03/25 05:21:51;;;;;;;;;;;;;;;-145.06;0.00;60892.56;4705136;29;19919;-90
2022/03/25 05:24:30;;;;;;;;;;;;;;;-145.06;0.00;60892.56;4704746;29;19920;-91
2022/03/25 05:27:08;;;;;;;;;;;;;;;-145.06;0.00;60892.56;4706202;29;19920;-91
2022/03/25 05:29:47;;;;;;;;;;;;;;;-145.06;0.00;60892.56;4721115;29;20263;-91
2022/03/25 05:32:26;;;;;;;;;;;;;;;-145.06;0.00;60892.56;4702590;29;19912;-91
2022/03/25 05:35:06;;;;;;;;;;;;;;;-145.06;0.00;60892.56;4710537;29;19923;-91
2022/03/25 05:37:45;;;;;;;;;;;;;;;-145.06;0.00;60892.56;4710416;29;20414;-92
2022/03/25 05:40:25;;;;;;;;;;;;;;;-145.06;0.00;60892.56;4710449;29;19919;-91
2022/03/25 05:43:04;;;;;;;;;;;;;;;-145.06;0.00;60892.56;4704963;29;20319;-91
2022/03/25 05:45:43;;;;;;;;;;;;;;;-145.06;0.00;60892.56;4703184;29;20255;-90
2022/03/25 05:48:22;;;;;;;;;;;;;;;-145.06;0.00;60892.56;4710037;29;19923;-91
2022/03/25 05:51:04;;;;;;;;;;;;;;;-145.06;0.00;60892.56;4703783;29;20398;-90
2022/03/25 05:53:44;;;;;;;;;;;;;;;-145.06;0.00;60892.56;4707539;29;20600;-90
2022/03/25 05:56:29;;;;;;;;;;;;;;;-145.06;0.00;60892.56;4709819;29;19919;-92
2022/03/25 05:59:08;;;;;;;;;;;;;;;-145.06;0.00;60892.56;4700653;29;20267;-92
2022/03/25 06:01:47;;;;;;;;;;;;;;;-145.06;0.00;60892.56;4699126;29;19919;-91
2022/03/25 06:04:26;;;;;;;;;;;;;;;-145.06;0.00;60892.56;4748331;23;19927;-91
2022/03/25 06:07:05;;;;;;;;;;;;;;;-145.06;0.00;60892.56;4709274;29;19920;-91
2022/03/25 06:09:45;;;;;;;;;;;;;;;-145.06;0.00;60892.56;4706358;29;19973;-90
2022/03/25 06:12:24;;;;;;;;;;;;;;;-145.06;0.00;60892.56;4702782;29;19919;-91
2022/03/25 06:15:04;;;;;;;;;;;;;;;-145.06;0.00;60892.56;4706624;29;19912;-90
2022/03/25 06:17:47;;;;;;;;;;;;;;;-145.06;0.00;60892.56;4687766;29;19916;-91
2022/03/25 06:20:29;;;;;;;;;;;;;;;-145.06;0.00;60892.56;4684794;29;19920;-91
2022/03/25 06:23:08;;;;;;;;;;;;;;;-145.06;0.00;60892.56;4675908;29;19916;-91
2022/03/25 06:25:48;;;;;;;;;;;;;;;-145.06;0.00;60892.56;4679471;29;19916;-90
2022/03/25 06:28:29;;;;;;;;;;;;;;;-145.06;0.00;60892.56;4687638;29;19920;-92
2022/03/25 06:31:08;;;;;;;;;;;;;;;-145.06;0.00;60892.56;4681736;29;19916;-91
2022/03/25 06:33:48;;;;;;;;;;;;;;;-145.06;0.00;60892.56;4683773;29;19959;-91
2022/03/25 06:36:37;;;;;;;;;;;;;;;-145.06;0.00;60892.56;4681937;29;19920;-91
2022/03/25 06:39:17;;;;;;;;;;;;;;;-145.06;0.00;60892.56;4681624;29;19924;-92
2022/03/25 06:41:56;;;;;;;;;;;;;;;-145.06;0.00;60892.56;4683858;29;19924;-91
2022/03/25 06:44:35;;;;;;;;;;;;;;;-145.06;0.00;60892.56;4683697;29;19916;-92
2022/03/25 06:47:13;;;;;;;;;;;;;;;-145.06;0.00;60892.56;4676573;29;20350;-91
2022/03/25 06:49:53;;;;;;;;;;;;;;;-145.06;0.00;60892.56;4684677;29;19920;-92
2022/03/25 06:52:32;;;;;;;;;;;;;;;-145.06;0.00;60892.56;4678462;29;20370;-91
2022/03/25 06:55:11;;;;;;;;;;;;;;;-145.06;0.00;60892.56;4677627;29;19920;-91
2022/03/25 06:57:51;;;;;;;;;;;;;;;-145.06;0.00;60892.56;4688803;29;19916;-91
2022/03/25 07:00:30;;;;;;;;;;;;;;;-145.06;0.00;60892.56;4687631;29;20014;-91
2022/03/25 07:03:09;;;;;;;;;;;;;;;-145.06;0.00;60892.56;4691571;29;19912;-91
2022/03/25 07:05:49;;;;;;;;;;;;;;;-145.06;0.00;60892.56;4674086;29;19920;-91
2022/03/25 07:08:29;;;;;;;;;;;;;;;-145.06;0.00;60892.56;4681701;29;19913;-91
2022/03/25 07:11:08;;;;;;;;;;;;;;;-145.06;0.00;60892.56;4675314;29;19916;-91
2022/03/25 07:13:47;;;;;;;;;;;;;;;-145.06;0.00;60892.56;4691529;29;19916;-92
2022/03/25 07:16:25;;;;;;;;;;;;;;;-145.06;0.00;60892.56;4678095;29;19916;-91
2022/03/25 07:19:07;;;;;;;;;;;;;;;-145.06;0.00;60892.56;4673827;29;19959;-91
2022/03/25 07:21:46;;;;;;;;;;;;;;;-145.06;0.00;60892.56;4677371;29;20014;-90
2022/03/25 07:24:26;;;;;;;;;;;;;;;-145.06;0.00;60892.56;4681959;29;19916;-91
2022/03/25 07:27:05;;;;;;;;;;;;;;;-145.06;0.00;60892.56;4695631;29;19920;-91
2022/03/25 07:29:44;;;;;;;;;;;;;;;-145.06;0.00;60892.56;4687547;29;19916;-92
2022/03/25 07:32:22;;;;;;;;;;;;;;;-145.06;0.00;60892.56;4688337;29;19916;-90
2022/03/25 07:35:01;;;;;;;;;;;;;;;-145.06;0.00;60892.56;4686121;29;20363;-92
2022/03/25 07:37:41;;;;;;;;;;;;;;;-145.06;0.00;60892.56;4681788;29;19920;-91
2022/03/25 07:40:22;;;;;;;;;;;;;;;-145.06;0.00;60892.56;4681182;29;19967;-91
2022/03/25 07:43:01;;;;;;;;;;;;;;;-145.06;0.00;60892.56;4685907;29;20371;-91
2022/03/25 07:45:40;;;;;;;;;;;;;;;-145.06;0.00;60892.56;4682225;29;20268;-91
2022/03/25 07:48:19;;;;;;;;;;;;;;;-145.06;0.00;60892.56;4687766;29;20010;-91
2022/03/25 07:50:58;;;;;;;;;;;;;;;-145.06;0.00;60892.56;4682573;29;20396;-91
2022/03/25 07:53:37;;;;;;;;;;;;;;;-145.06;0.00;60892.56;4681255;29;19955;-91
2022/03/25 07:56:16;;;;;;;;;;;;;;;-145.06;0.00;60892.56;4672926;29;19959;-92
2022/03/25 07:58:55;;;;;;;;;;;;;;;-145.06;0.00;60892.56;4689233;29;19912;-91
2022/03/25 08:01:34;;;;;;;;;;;;;;;-145.06;0.00;60892.56;4682735;29;19920;-91
2022/03/25 08:04:14;;;;;;;;;;;;;;;-145.06;0.00;60892.56;4689203;29;19963;-91
2022/03/25 08:06:54;;;;;;;;;;;;;;;-145.06;0.00;60892.56;4687150;29;19912;-92
2022/03/25 08:09:33;;;;;;;;;;;;;;;-145.06;0.00;60892.56;4674393;29;20263;-91
2022/03/25 08:12:11;;;;;;;;;;;;;;;-145.06;0.00;60892.56;4674636;29;19920;-91
2022/03/25 08:14:50;;;;;;;;;;;;;;;-145.06;0.00;60892.56;4690328;29;19916;-92
2022/03/25 08:17:29;;;;;;;;;;;;;;;-145.06;0.00;60892.56;4673666;29;19917;-92
2022/03/25 08:20:08;;;;;;;;;;;;;;;-145.06;0.00;60892.56;4673783;29;20252;-91
2022/03/25 08:22:47;;;;;;;;;;;;;;;-145.06;0.00;60892.56;4674037;29;19916;-92
2022/03/25 08:28:25;;;;;;;;;;;;;;;-145.06;0.00;60892.56;4695615;29;19916;-92
2022/03/25 08:31:04;;;;;;;;;;;;;;;-145.06;0.00;60892.56;4674709;29;20256;-92
2022/03/25 08:33:43;;;;;;;;;;;;;;;-145.06;0.00;60892.56;4686034;29;19916;-92
2022/03/25 08:36:22;;;;;;;;;;;;;;;-145.06;0.00;60892.56;4677488;29;20252;-92
2022/03/25 08:39:01;;;;;;;;;;;;;;;-145.06;0.00;60892.56;4672437;29;19920;-92
2022/03/25 08:41:40;;;;;;;;;;;;;;;-145.06;0.00;60892.56;4686730;29;19920;-89
2022/03/25 08:44:19;;;;;;;;;;;;;;;-145.06;0.00;60892.56;4675312;29;19967;-92
2022/03/25 08:46:58;;;;;;;;;;;;;;;-145.06;0.00;60892.56;4679431;29;19916;-91
2022/03/25 08:49:37;;;;;;;;;;;;;;;-145.06;0.00;60892.56;4672516;29;19932;-92
2022/03/25 08:52:17;;;;;;;;;;;;;;;-145.06;0.00;60892.56;4672944;29;19916;-91
2022/03/25 08:54:56;;;;;;;;;;;;;;;-145.06;0.00;60892.56;4686248;29;20350;-92
2022/03/25 08:57:36;;;;;;;;;;;;;;;-145.06;0.00;60892.56;4690465;29;19912;-91
2022/03/25 09:00:15;;;;;;;;;;;;;;;-145.06;0.00;60892.56;4685755;29;19913;-92
2022/03/25 09:02:54;;;;;;;;;;;;;;;-145.06;0.00;60892.56;4693383;29;19912;-91
2022/03/25 09:05:33;;;;;;;;;;;;;;;-145.06;0.00;60892.56;4676973;29;19916;-92
2022/03/25 09:08:12;;;;;;;;;;;;;;;-145.06;0.00;60892.56;4681939;29;20260;-92
2022/03/25 09:10:53;;;;;;;;;;;;;;;-145.06;0.00;60892.56;4682951;29;20390;-91
2022/03/25 09:13:32;;;;;;;;;;;;;;;-145.06;0.00;60892.56;4676547;29;19912;-92
2022/03/25 09:16:13;;;;;;;;;;;;;;;-145.06;0.00;60892.56;4690057;29;19920;-91
2022/03/25 09:18:52;;;;;;;;;;;;;;;-145.06;0.00;60892.56;4691940;29;19916;-91
2022/03/25 09:21:31;;;;;;;;;;;;;;;-145.06;0.00;60892.56;4685624;29;19954;-91
2022/03/25 09:24:10;;;;;;;;;;;;;;;-145.06;0.00;60892.56;4694614;29;20256;-91
2022/03/25 09:26:49;;;;;;;;;;;;;;;-145.06;0.00;60892.56;4678452;29;19916;-90
2022/03/25 09:29:28;;;;;;;;;;;;;;;-145.06;0.00;60892.56;4674536;29;19951;-91
2022/03/25 09:32:07;;;;;;;;;;;;;;;-145.06;0.00;60892.56;4684535;29;20343;-92
2022/03/25 09:37:45;;;;;;;;;;;;;;;-145.06;0.00;60892.56;4690663;29;20015;-92
2022/03/25 09:40:25;;;;;;;;;;;;;;;-145.06;0.00;60892.56;4678319;29;19924;-92
2022/03/25 09:43:04;;;;;;;;;;;;;;;-145.06;0.00;60892.56;4680555;29;19916;-91
2022/03/25 09:45:43;;;;;;;;;;;;;;;-145.06;0.00;60892.56;4687479;29;19912;-91
2022/03/25 09:48:22;;;;;;;;;;;;;;;-145.06;0.00;60892.56;4681352;29;19916;-91
2022/03/25 09:51:02;;;;;;;;;;;;;;;-145.06;0.00;60892.56;4685870;29;20098;-91
2022/03/25 09:53:41;;;;;;;;;;;;;;;-145.06;0.00;60892.56;4682936;29;20010;-92
2022/03/25 09:56:20;;;;;;;;;;;;;;;-145.06;0.00;60892.56;4692492;29;19916;-91
2022/03/25 09:58:59;;;;;;;;;;;;;;;-145.06;0.00;60892.56;4692061;29;19916;-90
2022/03/25 10:01:38;;;;;;;;;;;;;;;-145.06;0.00;60892.56;4681236;29;19925;-93
2022/03/25 10:04:36;;;;;;;;;;;;;;;-145.06;0.00;60892.56;4673772;29;19916;-91
2022/03/25 10:07:27;;;;;;;;;;;;;;;-145.06;0.00;60892.56;4677213;29;19921;-93
2022/03/25 10:10:16;;;;;;;;;;;;;;;-145.06;0.00;60892.56;4680545;29;19963;-91
2022/03/25 10:13:03;;;;;;;;;;;;;;;-145.06;0.00;60892.56;4688928;29;19916;-93
2022/03/25 10:15:42;;;;;;;;;;;;;;;21.08;0.00;60892.56;4676315;29;19913;-91
2022/03/25 10:18:21;;;;;;;;;;;;;;;-145.06;0.00;60892.56;4692457;29;20359;-92
2022/03/25 10:21:00;;;;;;;;;;;;;;;-145.06;0.00;60892.56;4691424;29;19920;-91
2022/03/25 10:23:43;;;;;;;;;;;;;;;-145.06;0.00;60892.56;4675550;29;19946;-92
2022/03/25 10:26:34;;;;;;;;;;;;;;;-145.06;0.00;60892.56;4677265;29;19912;-90
2022/03/25 10:29:21;;;;;;;;;;;;;;;-145.06;0.00;60892.56;4682968;29;19916;-90
2022/03/25 10:32:10;;;;;;;;;;;;;;;-145.06;0.00;60892.56;4685508;29;19916;-91
2022/03/25 10:34:59;;;;;;;;;;;;;;;-145.06;0.00;60892.56;4686887;29;19916;-91
2022/03/25 10:37:53;;;;;;;;;;;;;;;-145.06;0.00;60892.56;4680908;29;20015;-91
2022/03/25 10:40:47;;;;;;;;;;;;;;;-145.06;0.00;60892.56;4684901;29;19923;-91
2022/03/25 10:43:26;;;;;;;;;;;;;;;-145.06;0.00;60892.56;4676906;29;19915;-91
2022/03/25 10:46:05;;;;;;;;;;;;;;;-145.06;0.00;60892.56;4687738;29;19915;-89
2022/03/25 10:48:52;;;;;;;;;;;;;;;-145.06;0.00;60892.56;4687257;29;19919;-91
2022/03/25 10:51:32;;;;;;;;;;;;;;;21.08;0.00;60892.56;4673152;29;19912;-88
2022/03/25 10:54:12;;;;;;;;;;;;;;;-145.06;0.00;60892.56;4672821;29;19913;-89
2022/03/25 10:56:59;;;;;;;;;;;;;;;-145.06;0.00;60892.56;4673685;29;20462;-90
2022/03/25 10:59:38;;;;;;;;;;;;;;;-145.06;0.00;60892.56;4687989;29;20259;-88
2022/03/25 11:02:17;;;;;;;;;;;;;;;-145.06;0.00;60892.56;4690355;29;19924;-89
2022/03/25 11:04:57;;;;;;;;;;;;;;;-145.06;0.00;60892.56;4691126;29;19920;-89
2022/03/25 11:07:40;;;;;;;;;;;;;;;-145.06;0.00;60892.56;4674332;29;19917;-90
2022/03/25 11:10:19;;;;;;;;;;;;;;;-145.06;0.00;60892.56;4680988;29;19912;-89
2022/03/25 11:13:01;;;;;;;;;;;;;;;-145.06;0.00;60892.56;4690223;29;19912;-93
2022/03/25 11:15:40;;;;;;;;;;;;;;;18.48;0.00;60892.56;4690802;29;20404;-89
2022/03/25 11:18:19;;;;;;;;;;;;;;;21.08;0.00;60892.56;4684419;29;19921;-90
2022/03/25 11:21:00;;;;;;;;;;;;;;;-145.06;0.00;60892.56;4673681;29;19924;-92
2022/03/25 11:23:41;;;;;;;;;;;;;;;-145.06;0.00;60892.56;4690841;29;19916;-92
2022/03/25 11:26:22;;;;;;;;;;;;;;;-145.06;0.00;60892.56;4690923;29;19912;-91
2022/03/25 11:29:01;;;;;;;;;;;;;;;-145.06;0.00;60892.56;4687051;29;19967;-90
2022/03/25 11:31:59;;;;;;;;;;;;;;;-145.06;0.00;60892.56;4687757;29;20359;-90
2022/03/25 11:34:46;;;;;;;;;;;;;;;-145.06;0.00;60892.56;4673889;29;19916;-90
2022/03/25 11:37:28;;;;;;;;;;;;;;;-145.06;0.00;60892.56;4680042;29;19912;-90
2022/03/25 11:40:45;;;;;;;;;;;;;;;-145.06;0.00;60892.56;4673540;29;19913;-90
2022/03/25 11:43:45;;;;;;;;;;;;;;;;;;;;;
2022/03/25 11:46:35;;;;;;;;;;;;;;;-145.06;0.00;60892.56;4692321;29;19916;-92
2022/03/25 11:49:17;;;;;;;;;;;;;;;-145.06;0.00;60892.56;4689273;29;19917;-91
2022/03/25 11:52:18;;;;;;;;;;;;;;;-145.06;0.00;60892.56;4674059;29;20472;-91
2022/03/25 11:55:08;;;;;;;;;;;;;;;-145.06;0.00;60892.56;4686131;29;19916;-91
2022/03/25 11:57:47;;;;;;;;;;;;;;;-145.06;0.00;60892.56;4690088;29;19912;-90
2022/03/25 12:00:54;;;;;;;;;;;;;;;-145.06;0.00;60892.56;4684155;29;19917;-90
2022/03/25 12:03:49;;;;;;;;;;;;;;;-145.06;0.00;60892.56;4683434;29;19912;-91
2022/03/25 12:06:29;;;;;;;;;;;;;;;-145.06;0.00;60892.56;4676845;29;19912;-90
2022/03/25 12:09:15;;;;;;;;;;;;;;;-145.06;0.00;60892.56;4681790;29;19912;-90
2022/03/25 12:11:56;;;;;;;;;;;;;;;-145.06;0.00;60892.56;4699178;29;19912;-91
2022/03/25 12:14:36;;;;;;;;;;;;;;;19.50;0.00;60892.56;4681907;29;19912;-91
2022/03/25 12:17:24;;;;;;;;;;;;;;;19.53;0.00;60892.56;4690428;29;20239;-92
2022/03/25 12:20:06;;;;;;;;;;;;;;;-145.06;0.00;60892.56;4688876;29;19912;-90
2022/03/25 12:22:44;;;;;;;;;;;;;;;-145.06;0.00;60892.56;4686465;29;19951;-91
2022/03/25 12:25:23;;;;;;;;;;;;;;;-145.06;0.00;60892.56;4673436;29;20351;-91
2022/03/25 12:28:05;;;;;;;;;;;;;;;19.76;0.00;60892.56;4674914;29;19952;-91
2022/03/25 12:30:46;;;;;;;;;;;;;;;-145.06;0.00;60892.56;4673263;29;19912;-91
2022/03/25 12:33:26;;;;;;;;;;;;;;;-145.06;0.00;60892.56;4684054;29;19916;-91
2022/03/25 12:36:09;;;;;;;;;;;;;;;-145.06;0.00;60892.56;4690947;29;19912;-92
2022/03/25 12:38:48;;;;;;;;;;;;;;;-145.06;0.00;60892.56;4685342;29;19916;-91
2022/03/25 12:41:28;;;;;;;;;;;;;;;-145.06;0.00;60892.56;4675519;29;19920;-91
2022/03/25 12:44:08;;;;;;;;;;;;;;;-145.06;0.00;60892.56;4689065;29;19912;-91
2022/03/25 12:46:47;;;;;;;;;;;;;;;-145.06;0.00;60892.56;4690537;29;19970;-90
2022/03/25 12:49:26;;;;;;;;;;;;;;;-145.06;0.00;60892.56;4681829;29;19912;-91
2022/03/25 12:52:05;;;;;;;;;;;;;;;-145.06;0.00;60892.56;4685057;29;19916;-90
2022/03/25 12:54:44;;;;;;;;;;;;;;;-145.06;0.00;60892.56;4681283;29;19920;-91
2022/03/25 12:57:32;;;;;;;;;;;;;;;-145.06;0.00;60892.56;4686879;29;20419;-91
2022/03/25 13:00:14;;;;;;;;;;;;;;;-145.06;0.00;60892.56;4691954;29;19959;-91
2022/03/25 13:02:54;;;;;;;;;;;;;;;-145.06;0.00;60892.56;4693402;29;19912;-92
2022/03/25 13:05:34;;;;;;;;;;;;;;;-145.06;0.00;60892.56;4700272;29;19931;-91
2022/03/25 13:08:19;;;;;;;;;;;;;;;-145.06;0.00;60892.56;4687542;29;19916;-90
2022/03/25 13:11:03;;;;;;;;;;;;;;;-145.06;0.00;60892.56;4688477;29;19920;-91
2022/03/25 13:13:47;;;;;;;;;;;;;;;-145.06;0.00;60892.56;4696414;29;19959;-91
2022/03/25 13:16:26;;;;;;;;;;;;;;;-145.06;0.00;60892.56;4688010;29;19916;-91
2022/03/25 13:19:05;;;;;;;;;;;;;;;-145.06;0.00;60892.56;4684141;29;20350;-92
2022/03/25 13:21:44;;;;;;;;;;;;;;;-145.06;0.00;60892.56;4675138;29;20383;-91
2022/03/25 13:24:26;;;;;;;;;;;;;;;-145.06;0.00;60892.56;4686658;29;20113;-91
2022/03/25 13:27:06;;;;;;;;;;;;;;;-145.06;0.00;60892.56;4676514;29;20323;-91
2022/03/25 13:29:45;;;;;;;;;;;;;;;-145.06;0.00;60892.56;4688617;29;19916;-91
2022/03/25 13:32:28;;;;;;;;;;;;;;;-145.06;0.00;60892.56;4685370;29;19920;-91
2022/03/25 13:35:15;;;;;;;;;;;;;;;-145.06;0.00;60892.56;4683040;29;20351;-91
2022/03/25 13:38:00;;;;;;;;;;;;;;;-145.06;0.00;60892.56;4693178;29;19916;-91
2022/03/25 13:40:45;;;;;;;;;;;;;;;-145.06;0.00;60892.56;4675215;29;19916;-91
2022/03/25 13:43:25;;;;;;;;;;;;;;;-145.06;0.00;60892.56;4675114;29;20268;-90
2022/03/25 13:46:06;;;;;;;;;;;;;;;-145.06;0.00;60892.56;4691795;29;19916;-91
2022/03/25 13:48:47;;;;;;;;;;;;;;;-145.06;0.00;60892.56;4687031;29;19916;-90
2022/03/25 13:51:28;;;;;;;;;;;;;;;-145.06;0.00;60892.56;4696616;29;20006;-91